Time;durP1;ratioP1;P1;durP2;ratioP2;P2;SDS_P1;SDS_P2;PMS_P1;PMS_P2;Temp;Humidity;BMP_temperature;BMP_pressure;BME280_temperature;BME280_humidity;BME280_pressure;Samples;Min_cycle;Max_cycle;Signal;HPM_P1;HPM_P2
2021/01/01 00:01:40;;;;;;;171.15;107.90;;;3.10;99.90;;;;;;5132265;27;20039;-76
2021/01/01 00:04:07;;;;;;;172.10;111.10;;;3.10;99.90;;;;;;5130642;27;20038;-76
2021/01/01 00:06:37;;;;;;;139.70;90.38;;;3.10;99.90;;;;;;5128112;27;20068;-77
2021/01/01 00:09:05;;;;;;;137.98;85.32;;;3.10;99.90;;;;;;5126176;27;20038;-78
2021/01/01 00:11:34;;;;;;;133.25;85.13;;;3.10;99.90;;;;;;5127686;27;20419;-78
2021/01/01 00:14:00;;;;;;;126.88;80.50;;;3.10;99.90;;;;;;5125728;27;20073;-78
2021/01/01 00:16:25;;;;;;;116.57;74.82;;;3.10;99.90;;;;;;5127242;27;20483;-76
2021/01/01 00:18:51;;;;;;;125.07;80.88;;;3.10;99.90;;;;;;5120781;27;20066;-76
2021/01/01 00:21:19;;;;;;;121.53;79.68;;;3.00;99.90;;;;;;5125634;27;20036;-78
2021/01/01 00:23:45;;;;;;;115.25;74.10;;;3.10;99.90;;;;;;5124638;27;20084;-76
2021/01/01 00:26:15;;;;;;;123.55;78.93;;;3.10;99.90;;;;;;5128523;27;20031;-75
2021/01/01 00:28:46;;;;;;;118.75;75.43;;;3.10;99.90;;;;;;5125434;27;20487;-76
2021/01/01 00:31:16;;;;;;;128.95;77.88;;;3.10;99.90;;;;;;5122956;27;20406;-76
2021/01/01 00:33:42;;;;;;;113.97;71.80;;;3.10;99.90;;;;;;5127500;27;20031;-75
2021/01/01 00:36:09;;;;;;;104.20;62.65;;;3.10;99.90;;;;;;5125647;27;20110;-76
2021/01/01 00:38:36;;;;;;;102.50;65.45;;;;;;;;;;5124674;27;20034;-76
2021/01/01 00:41:01;;;;;;;108.05;66.38;;;3.20;99.90;;;;;;5125337;27;20379;-77
2021/01/01 00:43:27;;;;;;;104.38;63.88;;;3.10;99.90;;;;;;5125478;27;20015;-77
2021/01/01 00:45:52;;;;;;;114.53;68.32;;;3.10;99.90;;;;;;5120439;27;20115;-77
2021/01/01 00:48:18;;;;;;;111.95;67.05;;;3.10;99.90;;;;;;5123470;27;20035;-78
2021/01/01 00:50:43;;;;;;;109.65;67.13;;;3.10;99.90;;;;;;5107864;27;20031;-76
2021/01/01 00:53:09;;;;;;;102.35;66.28;;;3.10;99.90;;;;;;5126733;27;20084;-77
2021/01/01 00:55:34;;;;;;;108.90;65.60;;;3.00;99.90;;;;;;5132460;27;20027;-77
2021/01/01 00:58:06;;;;;;;103.13;64.55;;;3.10;99.90;;;;;;5091410;27;20039;-76
2021/01/01 01:00:31;;;;;;;;;;;3.10;99.90;;;;;;5125289;27;20031;-77
2021/01/01 01:02:57;;;;;;;106.25;62.10;;;3.00;99.90;;;;;;5128960;27;19908;-75
2021/01/01 01:05:22;;;;;;;99.45;62.17;;;3.00;99.90;;;;;;5123138;27;20027;-78
2021/01/01 01:07:48;;;;;;;107.10;64.72;;;3.00;99.90;;;;;;5125005;27;20122;-76
2021/01/01 01:10:13;;;;;;;107.93;65.88;;;3.00;99.90;;;;;;5125993;27;20086;-76
2021/01/01 01:12:40;;;;;;;106.88;66.43;;;3.00;99.90;;;;;;5125013;27;20106;-76
2021/01/01 01:15:06;;;;;;;105.70;63.38;;;3.10;99.90;;;;;;5123645;27;20107;-77
2021/01/01 01:17:32;;;;;;;91.45;57.97;;;3.00;99.90;;;;;;5122678;27;20043;-77
2021/01/01 01:19:57;;;;;;;89.30;56.25;;;3.10;99.90;;;;;;5126430;27;20110;-76
2021/01/01 01:22:23;;;;;;;86.25;53.70;;;3.00;99.90;;;;;;5125203;27;20153;-77
2021/01/01 01:24:48;;;;;;;83.13;53.83;;;3.00;99.90;;;;;;5113413;27;20030;-76
2021/01/01 01:27:14;;;;;;;91.63;55.55;;;3.00;99.90;;;;;;5123179;27;20074;-77
2021/01/01 01:29:39;;;;;;;87.47;52.60;;;4.80;99.90;;;;;;5123270;27;20028;-76
2021/01/01 01:32:05;;;;;;;85.45;51.85;;;3.00;99.90;;;;;;5125002;27;20125;-77
2021/01/01 01:34:31;;;;;;;81.28;50.95;;;2.90;99.90;;;;;;5124685;27;20055;-79
2021/01/01 01:36:56;;;;;;;78.70;50.08;;;2.90;99.90;;;;;;5126067;27;20023;-77
2021/01/01 01:39:21;;;;;;;74.88;47.10;;;2.90;99.90;;;;;;5121037;27;20374;-76
2021/01/01 01:41:47;;;;;;;78.72;47.58;;;2.90;99.90;;;;;;5125393;27;20035;-75
2021/01/01 01:44:13;;;;;;;78.85;48.75;;;2.90;99.90;;;;;;5123654;27;20031;-76
2021/01/01 01:46:41;;;;;;;73.68;47.20;;;2.90;99.90;;;;;;5121870;27;20030;-77
2021/01/01 01:49:09;;;;;;;69.82;46.17;;;2.90;99.90;;;;;;5123224;27;20028;-76
2021/01/01 01:51:36;;;;;;;73.95;43.00;;;2.90;99.90;;;;;;5124747;27;20564;-76
2021/01/01 01:54:02;;;;;;;70.43;42.92;;;2.90;99.90;;;;;;5122075;27;20035;-76
2021/01/01 01:56:29;;;;;;;70.32;42.63;;;2.90;99.90;;;;;;5126830;27;20027;-76
2021/01/01 01:58:54;;;;;;;67.88;42.20;;;2.90;99.90;;;;;;5118052;28;20027;-77
2021/01/01 02:01:22;;;;;;;64.47;41.50;;;2.80;99.90;;;;;;5125354;28;20414;-77
2021/01/01 02:03:47;;;;;;;59.90;39.45;;;2.80;99.90;;;;;;5126368;28;20019;-75
2021/01/01 02:06:13;;;;;;;56.97;36.63;;;2.90;99.90;;;;;;5128670;28;20034;-79
2021/01/01 02:08:51;;;;;;;63.30;38.67;;;2.90;99.90;;;;;;5126694;28;20540;-77
2021/01/01 02:11:17;;;;;;;59.58;36.63;;;2.80;99.90;;;;;;5124105;28;20039;-76
2021/01/01 02:13:47;;;;;;;58.38;37.50;;;2.80;99.90;;;;;;5123486;28;20019;-77
2021/01/01 02:16:14;;;;;;;51.78;33.08;;;2.90;99.90;;;;;;5123076;28;20043;-75
2021/01/01 02:18:41;;;;;;;56.35;33.35;;;2.80;99.90;;;;;;5124176;28;20043;-76
2021/01/01 02:21:07;;;;;;;49.05;31.52;;;2.80;99.90;;;;;;5123898;28;20027;-76
2021/01/01 02:23:34;;;;;;;48.80;31.17;;;2.80;99.90;;;;;;5120877;28;20102;-78
2021/01/01 02:26:00;;;;;;;44.83;29.92;;;2.70;99.90;;;;;;5124947;28;20043;-78
2021/01/01 02:28:25;;;;;;;42.05;27.45;;;2.80;99.90;;;;;;5117250;28;20036;-77
2021/01/01 02:30:51;;;;;;;41.05;25.83;;;2.80;99.90;;;;;;5123828;28;20048;-77
2021/01/01 02:33:17;;;;;;;43.25;26.77;;;2.80;99.90;;;;;;5122514;28;20048;-77
2021/01/01 02:35:42;;;;;;;40.80;26.95;;;2.80;99.90;;;;;;5105119;28;20080;-78
2021/01/01 02:38:08;;;;;;;43.28;25.45;;;2.80;99.90;;;;;;5120457;28;20028;-78
2021/01/01 02:40:33;;;;;;;42.70;26.13;;;2.80;99.90;;;;;;5125624;28;20106;-78
2021/01/01 02:42:59;;;;;;;40.70;26.30;;;2.70;99.90;;;;;;5127064;28;20408;-77
2021/01/01 02:45:25;;;;;;;42.97;26.40;;;2.80;99.90;;;;;;5122755;28;20094;-76
2021/01/01 02:47:50;;;;;;;36.08;25.15;;;2.80;99.90;;;;;;5128335;27;20046;-76
2021/01/01 02:50:17;;;;;;;40.60;26.23;;;2.80;99.90;;;;;;5131959;27;20035;-77
2021/01/01 02:52:43;;;;;;;35.78;23.63;;;2.80;99.90;;;;;;5132782;27;20027;-77
2021/01/01 02:55:10;;;;;;;41.05;26.48;;;2.80;99.90;;;;;;5134063;27;20020;-77
2021/01/01 02:57:35;;;;;;;35.42;24.10;;;2.80;99.90;;;;;;5133512;27;20160;-76
2021/01/01 03:00:01;;;;;;;34.38;24.13;;;2.80;99.90;;;;;;5125984;27;20103;-77
2021/01/01 03:02:27;;;;;;;37.47;24.58;;;2.80;99.90;;;;;;5121706;27;20023;-76
2021/01/01 03:04:52;;;;;;;35.70;23.35;;;2.80;99.90;;;;;;5126795;27;20023;-76
2021/01/01 03:07:18;;;;;;;35.58;24.05;;;2.80;99.90;;;;;;5130807;27;20502;-76
2021/01/01 03:09:43;;;;;;;39.25;21.90;;;2.80;99.90;;;;;;5132979;27;20035;-77
2021/01/01 03:12:09;;;;;;;35.42;22.95;;;2.90;99.90;;;;;;5129941;27;20043;-77
2021/01/01 03:14:34;;;;;;;35.25;23.30;;;2.90;99.90;;;;;;5132209;27;20020;-76
2021/01/01 03:16:59;;;;;;;34.60;23.27;;;2.90;99.90;;;;;;5137495;27;20058;-78
2021/01/01 03:19:25;;;;;;;33.05;21.48;;;2.90;99.90;;;;;;5132270;27;20023;-76
2021/01/01 03:21:50;;;;;;;35.20;22.85;;;2.90;99.90;;;;;;5127411;27;20103;-78
2021/01/01 03:24:16;;;;;;;35.13;22.60;;;2.90;99.90;;;;;;5128846;27;20031;-77
2021/01/01 03:26:41;;;;;;;34.67;22.42;;;2.80;99.90;;;;;;5130443;27;20045;-78
2021/01/01 03:29:07;;;;;;;36.35;22.58;;;2.80;99.90;;;;;;5130170;27;20497;-76
2021/01/01 03:31:32;;;;;;;35.67;21.75;;;2.80;99.90;;;;;;5132386;27;20041;-76
2021/01/01 03:33:58;;;;;;;39.33;23.30;;;2.80;99.90;;;;;;5131832;27;20027;-76
2021/01/01 03:36:23;;;;;;;33.38;22.20;;;2.80;99.90;;;;;;5130968;27;20019;-76
2021/01/01 03:38:52;;;;;;;35.70;22.83;;;2.80;99.90;;;;;;5125790;27;20034;-77
2021/01/01 03:41:17;;;;;;;35.35;22.17;;;2.80;99.90;;;;;;5128864;27;20019;-76
2021/01/01 03:43:43;;;;;;;36.40;22.48;;;2.80;99.90;;;;;;5126509;27;20030;-76
2021/01/01 03:46:08;;;;;;;33.58;21.30;;;2.80;99.90;;;;;;5122463;27;20027;-76
2021/01/01 03:48:34;;;;;;;35.92;21.75;;;2.80;99.90;;;;;;5124308;27;20098;-77
2021/01/01 03:51:00;;;;;;;33.33;22.90;;;2.80;99.90;;;;;;5124373;27;20015;-76
2021/01/01 03:53:26;;;;;;;38.00;22.17;;;2.90;99.90;;;;;;5093017;27;20035;-77
2021/01/01 03:55:52;;;;;;;36.28;22.55;;;;;;;;;;5129137;27;20015;-77
2021/01/01 03:58:17;;;;;;;35.63;21.25;;;2.90;99.90;;;;;;5125097;27;20031;-76
2021/01/01 04:00:43;;;;;;;38.63;22.85;;;2.90;99.90;;;;;;5126758;27;20019;-77
2021/01/01 04:03:08;;;;;;;35.13;22.90;;;2.90;99.90;;;;;;5110096;27;20046;-77
2021/01/01 04:05:34;;;;;;;39.83;24.02;;;3.00;99.90;;;;;;5124365;27;20044;-78
2021/01/01 04:07:59;;;;;;;33.38;22.27;;;2.90;99.90;;;;;;5123733;27;20127;-78
2021/01/01 04:10:25;;;;;;;34.35;21.48;;;2.80;99.90;;;;;;5127259;27;20030;-77
2021/01/01 04:12:50;;;;;;;30.67;21.52;;;2.90;99.90;;;;;;5109137;27;20083;-79
2021/01/01 04:15:16;;;;;;;32.28;21.10;;;2.80;99.90;;;;;;5125775;27;20031;-78
2021/01/01 04:17:41;;;;;;;29.15;20.45;;;2.90;99.90;;;;;;5129784;27;20023;-76
2021/01/01 04:20:07;;;;;;;32.08;21.55;;;2.90;99.90;;;;;;5125225;27;20036;-77
2021/01/01 04:22:33;;;;;;;35.03;21.63;;;2.90;99.90;;;;;;5127200;27;20023;-77
2021/01/01 04:25:02;;;;;;;32.42;20.55;;;2.90;99.90;;;;;;5119871;27;20035;-76
2021/01/01 04:27:28;;;;;;;34.42;20.83;;;;;;;;;;5126810;27;20031;-77
2021/01/01 04:29:53;;;;;;;33.10;21.02;;;2.80;99.90;;;;;;5129171;27;20042;-77
2021/01/01 04:32:19;;;;;;;37.22;23.15;;;5.00;99.90;;;;;;5126204;27;20520;-77
2021/01/01 04:34:44;;;;;;;35.45;22.50;;;2.80;99.90;;;;;;5125580;27;20041;-76
2021/01/01 04:37:10;;;;;;;32.50;20.98;;;2.80;99.90;;;;;;5127337;27;20027;-77
2021/01/01 04:39:36;;;;;;;34.40;21.52;;;2.70;99.90;;;;;;5108668;27;20026;-77
2021/01/01 04:42:03;;;;;;;32.75;21.75;;;2.70;99.90;;;;;;5123722;27;20031;-77
2021/01/01 04:44:28;;;;;;;32.28;21.13;;;2.80;99.90;;;;;;5123419;27;20532;-77
2021/01/01 04:46:56;;;;;;;31.60;22.00;;;2.70;99.90;;;;;;5125975;27;20027;-76
2021/01/01 04:49:21;;;;;;;31.65;20.00;;;2.70;99.90;;;;;;5122493;27;20119;-77
2021/01/01 04:51:47;;;;;;;31.50;20.35;;;2.70;99.90;;;;;;5127010;27;20061;-78
2021/01/01 04:54:16;;;;;;;32.20;20.65;;;2.70;99.90;;;;;;5126955;27;20027;-78
2021/01/01 04:56:54;;;;;;;31.00;19.70;;;2.60;99.90;;;;;;5125157;27;20012;-79
2021/01/01 04:59:20;;;;;;;32.97;20.98;;;2.60;99.90;;;;;;5102523;28;20027;-77
2021/01/01 05:01:46;;;;;;;30.30;20.63;;;2.60;99.90;;;;;;5125142;27;20022;-78
2021/01/01 05:04:15;;;;;;;34.10;21.17;;;2.60;99.90;;;;;;5125621;27;20047;-77
2021/01/01 05:06:42;;;;;;;33.73;21.50;;;2.50;99.90;;;;;;5124055;27;20023;-78
2021/01/01 05:09:07;;;;;;;33.95;21.17;;;2.60;99.90;;;;;;5126307;27;20038;-77
2021/01/01 05:11:33;;;;;;;33.95;22.05;;;2.50;99.90;;;;;;5124324;27;20023;-77
2021/01/01 05:14:03;;;;;;;33.42;21.40;;;2.50;99.90;;;;;;5124057;27;20106;-79
2021/01/01 05:16:29;;;;;;;33.25;20.40;;;2.50;99.90;;;;;;5126864;27;20131;-79
2021/01/01 05:18:54;;;;;;;31.90;21.23;;;2.50;99.90;;;;;;5126583;27;20063;-77
2021/01/01 05:21:22;;;;;;;36.95;21.48;;;2.50;99.90;;;;;;5126645;27;20521;-79
2021/01/01 05:23:49;;;;;;;33.60;20.98;;;2.40;99.90;;;;;;5122011;27;20085;-77
2021/01/01 05:26:16;;;;;;;32.47;20.35;;;2.40;99.90;;;;;;5124585;27;20084;-77
2021/01/01 05:28:50;;;;;;;35.13;20.58;;;2.40;99.90;;;;;;5104770;28;20031;-77
2021/01/01 05:31:24;;;;;;;34.13;20.63;;;2.40;99.90;;;;;;5128510;27;20119;-79
2021/01/01 05:33:57;;;;;;;32.25;19.30;;;2.40;99.90;;;;;;5130985;27;20033;-79
2021/01/01 05:36:33;;;;;;;32.75;21.00;;;2.40;99.90;;;;;;5121901;27;20023;-78
2021/01/01 05:39:01;;;;;;;32.78;20.15;;;2.40;99.90;;;;;;5148564;27;20042;-77
2021/01/01 05:41:39;;;;;;;36.05;21.17;;;2.30;99.90;;;;;;5131415;27;20026;-77
2021/01/01 05:44:13;;;;;;;33.33;20.30;;;2.30;99.90;;;;;;5122074;27;20037;-78
2021/01/01 05:46:56;;;;;;;33.38;20.65;;;2.40;99.90;;;;;;5128980;27;20016;-77
2021/01/01 05:49:25;;;;;;;31.55;20.65;;;2.30;99.90;;;;;;5133585;27;20041;-77
2021/01/01 05:52:08;;;;;;;30.92;20.17;;;2.30;99.90;;;;;;5110093;27;20027;-77
2021/01/01 05:54:35;;;;;;;33.92;20.52;;;2.30;99.90;;;;;;5122966;27;20031;-76
2021/01/01 05:57:06;;;;;;;33.10;21.23;;;2.20;99.90;;;;;;5109855;28;20035;-77
2021/01/01 05:59:37;;;;;;;31.55;21.45;;;2.20;99.90;;;;;;5087849;28;20034;-76
2021/01/01 06:02:04;;;;;;;34.78;21.33;;;2.20;99.90;;;;;;5118814;28;20395;-76
2021/01/01 06:04:30;;;;;;;35.22;20.05;;;2.20;99.90;;;;;;5126347;28;20047;-76
2021/01/01 06:06:59;;;;;;;36.65;21.27;;;2.30;99.90;;;;;;5121468;28;20072;-76
2021/01/01 06:09:27;;;;;;;35.78;21.67;;;2.30;99.90;;;;;;5130967;28;20040;-77
2021/01/01 06:12:07;;;;;;;36.92;22.17;;;2.30;99.90;;;;;;5130766;28;20472;-77
2021/01/01 06:14:44;;;;;;;34.22;20.50;;;2.30;99.90;;;;;;5135718;28;20042;-76
2021/01/01 06:17:09;;;;;;;37.47;22.35;;;2.30;99.90;;;;;;5120004;28;20040;-77
2021/01/01 06:19:51;;;;;;;36.97;22.95;;;2.30;99.90;;;;;;5124394;28;20035;-76
2021/01/01 06:22:19;;;;;;;37.33;20.90;;;2.40;99.90;;;;;;5121000;28;20030;-76
2021/01/01 06:24:52;;;;;;;33.13;22.05;;;2.40;99.90;;;;;;5127377;27;20753;-76
2021/01/01 06:27:20;;;;;;;36.08;21.40;;;2.40;99.90;;;;;;5128349;27;20043;-77
2021/01/01 06:29:54;;;;;;;32.22;21.38;;;2.40;99.90;;;;;;5127571;27;20461;-76
2021/01/01 06:32:21;;;;;;;34.45;23.40;;;2.30;99.90;;;;;;5127860;27;20031;-76
2021/01/01 06:34:47;;;;;;;34.33;20.95;;;2.30;99.90;;;;;;5125997;27;20408;-76
2021/01/01 06:37:35;;;;;;;34.58;23.17;;;2.20;99.90;;;;;;5127482;27;20364;-77
2021/01/01 06:40:01;;;;;;;37.40;22.15;;;2.10;99.90;;;;;;5131590;27;20399;-77
2021/01/01 06:42:53;;;;;;;39.00;22.85;;;2.10;99.90;;;;;;5124103;27;20497;-78
2021/01/01 06:45:40;;;;;;;38.20;23.83;;;2.10;99.90;;;;;;5109772;27;20031;-78
2021/01/01 06:48:10;;;;;;;36.35;22.95;;;2.10;99.90;;;;;;5126083;27;20215;-77
2021/01/01 06:50:38;;;;;;;40.25;23.73;;;2.10;99.90;;;;;;5115301;28;20019;-78
2021/01/01 06:53:04;;;;;;;35.83;23.42;;;2.00;99.90;;;;;;5129347;27;20122;-78
2021/01/01 06:55:32;;;;;;;35.10;23.15;;;2.00;99.90;;;;;;5137347;27;20019;-79
2021/01/01 06:57:58;;;;;;;37.13;24.08;;;2.00;99.90;;;;;;5133241;27;20024;-78
2021/01/01 07:00:45;;;;;;;38.35;23.70;;;1.90;99.90;;;;;;5135891;27;20533;-76
2021/01/01 07:03:26;;;;;;;38.60;23.85;;;1.90;99.90;;;;;;5124033;27;20036;-78
2021/01/01 07:05:57;;;;;;;35.00;23.27;;;2.00;99.90;;;;;;5125912;27;20106;-77
2021/01/01 07:11:09;;;;;;;35.42;22.77;;;2.00;99.90;;;;;;5122784;27;20087;-77
2021/01/01 07:13:46;;;;;;;37.30;23.05;;;1.90;99.90;;;;;;5122393;27;20123;-77
2021/01/01 07:16:13;;;;;;;47.08;26.10;;;1.90;99.90;;;;;;5118998;27;20043;-77
2021/01/01 07:18:39;;;;;;;42.20;25.80;;;1.90;99.90;;;;;;5125309;27;20502;-78
2021/01/01 07:21:07;;;;;;;39.78;25.17;;;2.00;99.90;;;;;;5133252;27;20057;-77
2021/01/01 07:23:33;;;;;;;36.55;22.90;;;1.90;99.90;;;;;;5124367;27;20023;-77
2021/01/01 07:25:59;;;;;;;39.90;24.98;;;1.90;99.90;;;;;;5124455;27;20448;-78
2021/01/01 07:28:26;;;;;;;41.17;24.02;;;2.00;99.90;;;;;;5128391;27;20039;-77
2021/01/01 07:30:53;;;;;;;39.28;23.75;;;2.00;99.90;;;;;;5127024;27;20058;-76
2021/01/01 07:33:23;;;;;;;39.15;23.38;;;2.00;99.90;;;;;;5126898;27;20027;-77
2021/01/01 07:35:57;;;;;;;36.90;24.33;;;2.00;99.90;;;;;;5126339;27;20023;-77
2021/01/01 07:38:24;;;;;;;41.22;24.45;;;2.00;99.90;;;;;;5124660;27;20429;-77
2021/01/01 07:40:50;;;;;;;34.85;23.33;;;2.00;99.90;;;;;;5126434;27;20066;-76
2021/01/01 07:43:17;;;;;;;40.63;24.27;;;2.00;99.90;;;;;;5127266;27;20032;-77
2021/01/01 07:45:43;;;;;;;40.70;24.90;;;1.90;99.90;;;;;;5121894;27;20053;-76
2021/01/01 07:48:09;;;;;;;58.22;33.13;;;2.00;99.90;;;;;;5126136;27;20031;-76
2021/01/01 07:50:36;;;;;;;39.55;25.50;;;2.00;99.90;;;;;;5127612;27;20490;-77
2021/01/01 07:53:03;;;;;;;56.55;29.90;;;2.00;99.90;;;;;;5123921;27;20043;-77
2021/01/01 07:55:30;;;;;;;50.28;28.73;;;2.00;99.90;;;;;;5127386;27;20023;-77
2021/01/01 07:58:08;;;;;;;42.50;27.23;;;2.00;99.90;;;;;;5123679;27;20036;-76
2021/01/01 08:00:36;;;;;;;40.47;25.10;;;2.00;99.90;;;;;;5119816;27;20472;-77
2021/01/01 08:03:05;;;;;;;40.42;24.48;;;2.00;99.90;;;;;;5123171;27;20507;-78
2021/01/01 08:05:31;;;;;;;39.97;24.17;;;2.00;99.90;;;;;;5125765;27;20068;-78
2021/01/01 08:08:17;;;;;;;37.20;23.02;;;1.90;99.90;;;;;;5124967;27;20122;-77
2021/01/01 08:10:45;;;;;;;43.60;25.02;;;2.00;99.90;;;;;;5123735;27;20027;-77
2021/01/01 08:13:19;;;;;;;42.55;25.00;;;2.00;99.90;;;;;;5105906;27;20031;-77
2021/01/01 08:15:45;;;;;;;38.58;24.75;;;2.10;99.90;;;;;;5121254;27;20042;-77
2021/01/01 08:18:25;;;;;;;39.60;24.05;;;2.10;99.90;;;;;;5126109;27;20027;-78
2021/01/01 08:21:02;;;;;;;39.58;24.02;;;2.10;99.90;;;;;;5126433;27;20023;-75
2021/01/01 08:23:37;;;;;;;42.97;25.23;;;2.10;99.90;;;;;;5123993;27;20113;-76
2021/01/01 08:26:03;;;;;;;39.03;22.95;;;2.10;99.90;;;;;;5108001;28;20023;-77
2021/01/01 08:28:29;;;;;;;40.03;25.20;;;2.10;99.90;;;;;;5127975;27;20066;-75
2021/01/01 08:31:06;;;;;;;43.45;26.77;;;2.10;99.90;;;;;;5112784;27;20019;-75
2021/01/01 08:33:36;;;;;;;43.75;23.98;;;2.20;99.90;;;;;;5133476;27;20031;-76
2021/01/01 08:36:05;;;;;;;42.50;25.50;;;2.20;99.90;;;;;;5130480;27;20019;-76
2021/01/01 08:38:31;;;;;;;42.15;25.40;;;2.30;99.90;;;;;;5130456;27;20118;-76
2021/01/01 08:40:58;;;;;;;38.40;24.13;;;2.30;99.90;;;;;;5124433;27;20479;-75
2021/01/01 08:43:25;;;;;;;42.40;25.23;;;2.30;99.90;;;;;;5128613;27;20032;-77
2021/01/01 08:45:51;;;;;;;37.70;24.17;;;2.40;99.90;;;;;;5124256;27;20497;-75
2021/01/01 08:48:20;;;;;;;41.78;25.02;;;2.30;99.90;;;;;;5128893;27;20031;-75
2021/01/01 08:50:49;;;;;;;42.72;25.02;;;2.30;99.90;;;;;;5128707;27;20024;-77
2021/01/01 08:53:16;;;;;;;46.78;27.80;;;2.40;99.90;;;;;;5136320;27;20019;-77
2021/01/01 08:55:44;;;;;;;43.08;26.83;;;2.50;99.90;;;;;;5132513;27;20062;-77
2021/01/01 08:58:17;;;;;;;41.83;24.77;;;2.60;99.90;;;;;;5128414;27;20032;-76
2021/01/01 09:00:46;;;;;;;39.78;24.95;;;2.60;99.90;;;;;;5123387;27;20024;-77
2021/01/01 09:03:13;;;;;;;40.08;24.27;;;2.70;99.90;;;;;;5126717;27;20093;-76
2021/01/01 09:05:38;;;;;;;38.25;24.02;;;2.70;99.90;;;;;;5124702;27;20027;-77
2021/01/01 09:08:17;;;;;;;40.08;25.10;;;2.70;99.90;;;;;;5122863;27;20047;-76
2021/01/01 09:10:47;;;;;;;37.70;23.45;;;2.70;99.90;;;;;;5127093;27;20023;-75
2021/01/01 09:13:15;;;;;;;39.35;23.30;;;2.60;99.90;;;;;;5127439;27;20110;-75
2021/01/01 09:15:41;;;;;;;43.05;25.58;;;2.60;99.90;;;;;;5128375;27;20070;-76
2021/01/01 09:18:07;;;;;;;37.42;25.15;;;2.70;99.90;;;;;;5121142;27;20087;-76
2021/01/01 09:20:34;;;;;;;39.28;25.08;;;2.70;99.90;;;;;;5123038;27;20123;-76
2021/01/01 09:23:02;;;;;;;37.60;22.85;;;2.60;99.90;;;;;;5126711;27;20433;-76
2021/01/01 09:25:29;;;;;;;38.40;22.77;;;2.70;99.90;;;;;;5124543;27;20371;-77
2021/01/01 09:27:55;;;;;;;39.40;24.75;;;2.70;99.90;;;;;;5123925;27;20386;-76
2021/01/01 09:30:23;;;;;;;37.92;23.90;;;2.70;99.90;;;;;;5125361;27;20027;-77
2021/01/01 09:32:52;;;;;;;36.53;24.23;;;2.70;99.90;;;;;;5125635;27;20030;-76
2021/01/01 09:35:18;;;;;;;37.75;22.58;;;2.70;99.90;;;;;;5124409;27;20035;-77
2021/01/01 09:37:58;;;;;;;40.63;23.27;;;2.70;99.90;;;;;;5126726;27;20471;-77
2021/01/01 09:40:27;;;;;;;38.47;23.75;;;2.80;99.90;;;;;;5124940;27;20440;-78
2021/01/01 09:42:54;;;;;;;36.65;21.77;;;2.90;99.90;;;;;;5122190;27;20127;-76
2021/01/01 09:45:19;;;;;;;33.40;22.02;;;3.20;99.90;;;;;;5119932;27;20020;-78
2021/01/01 09:47:45;;;;;;;33.88;21.23;;;3.20;99.90;;;;;;5108449;28;20084;-77
2021/01/01 09:50:12;;;;;;;35.75;22.17;;;3.10;99.90;;;;;;5128267;27;20030;-78
2021/01/01 09:52:38;;;;;;;33.15;20.77;;;3.10;99.90;;;;;;5124687;27;20030;-77
2021/01/01 09:55:08;;;;;;;37.67;22.70;;;3.20;99.90;;;;;;5123887;27;20032;-79
2021/01/01 09:57:35;;;;;;;31.20;21.55;;;3.30;99.90;;;;;;5104594;27;20499;-78
2021/01/01 10:00:00;;;;;;;30.60;21.08;;;3.30;99.90;;;;;;5122973;28;20035;-78
2021/01/01 10:02:26;;;;;;;33.85;20.30;;;3.30;99.90;;;;;;5124391;28;20491;-77
2021/01/01 10:04:51;;;;;;;30.77;20.33;;;3.30;99.90;;;;;;5126290;28;20027;-76
2021/01/01 10:07:18;;;;;;;32.22;21.50;;;3.20;99.90;;;;;;5126411;28;20031;-76
2021/01/01 10:09:44;;;;;;;33.08;21.50;;;3.20;99.90;;;;;;5127107;28;20031;-76
2021/01/01 10:12:12;;;;;;;31.77;20.48;;;3.20;99.90;;;;;;5118559;28;20031;-77
2021/01/01 10:14:38;;;;;;;36.67;21.63;;;3.20;99.90;;;;;;5125797;28;20030;-77
2021/01/01 10:17:03;;;;;;;34.50;21.67;;;3.30;99.90;;;;;;5123710;28;20039;-76
2021/01/01 10:19:29;;;;;;;34.47;21.77;;;3.40;99.90;;;;;;5126011;28;20108;-77
2021/01/01 10:21:54;;;;;;;38.97;22.27;;;3.40;99.90;;;;;;5125936;28;20015;-76
2021/01/01 10:24:21;;;;;;;36.90;22.38;;;3.30;99.90;;;;;;5123177;28;20038;-77
2021/01/01 10:26:51;;;;;;;41.13;24.10;;;3.30;99.90;;;;;;5130889;28;20089;-77
2021/01/01 10:29:17;;;;;;;34.40;22.23;;;3.30;99.90;;;;;;5126184;28;20050;-78
2021/01/01 10:31:44;;;;;;;34.33;21.33;;;3.40;99.90;;;;;;5110945;28;20031;-78
2021/01/01 10:34:10;;;;;;;31.45;20.58;;;3.30;99.90;;;;;;5123677;28;20038;-77
2021/01/01 10:36:36;;;;;;;34.70;21.23;;;3.30;99.90;;;;;;5131138;28;20027;-79
2021/01/01 10:39:03;;;;;;;36.33;22.17;;;3.30;99.90;;;;;;5129415;28;20053;-79
2021/01/01 10:41:29;;;;;;;35.97;23.05;;;3.50;99.90;;;;;;5130598;28;20023;-77
2021/01/01 10:43:56;;;;;;;38.50;23.42;;;3.50;99.90;;;;;;5132622;28;20022;-79
2021/01/01 10:46:21;;;;;;;33.45;22.20;;;3.50;99.90;;;;;;5129010;28;20084;-79
2021/01/01 10:48:47;;;;;;;32.47;21.48;;;3.70;99.90;;;;;;5115628;28;20036;-77
2021/01/01 10:51:20;;;;;;;34.80;22.92;;;3.80;99.90;;;;;;5128821;28;20091;-77
2021/01/01 10:53:46;;;;;;;34.15;22.05;;;3.90;99.90;;;;;;5126528;28;20023;-77
2021/01/01 10:56:18;;;;;;;44.05;26.40;;;3.80;99.90;;;;;;5126711;28;20375;-77
2021/01/01 10:58:43;;;;;;;33.40;22.25;;;3.60;99.90;;;;;;5118407;28;20034;-78
2021/01/01 11:01:09;;;;;;;34.67;22.75;;;3.70;99.90;;;;;;5131010;28;20035;-77
2021/01/01 11:03:34;;;;;;;39.05;22.80;;;3.80;99.90;;;;;;5125980;28;20027;-79
2021/01/01 11:06:00;;;;;;;38.63;23.02;;;3.70;99.90;;;;;;5129608;28;20122;-77
2021/01/01 11:08:25;;;;;;;36.38;23.73;;;3.80;99.90;;;;;;5128919;27;20039;-78
2021/01/01 11:10:51;;;;;;;36.78;22.30;;;3.90;99.90;;;;;;5131672;27;20068;-77
2021/01/01 11:13:16;;;;;;;39.17;23.25;;;3.90;99.90;;;;;;5127400;27;20035;-78
2021/01/01 12:22:16;;;;;;;37.92;21.23;;;4.00;99.90;;;;;;5101692;27;20045;-77
2021/01/01 12:24:48;;;;;;;33.17;20.30;;;4.00;99.90;;;;;;5125966;27;20054;-78
2021/01/01 12:27:24;;;;;;;32.50;20.98;;;4.00;99.90;;;;;;5126693;27;20478;-78
2021/01/01 12:29:51;;;;;;;33.72;20.02;;;4.00;99.90;;;;;;5126649;27;20026;-77
2021/01/01 12:32:18;;;;;;;38.03;22.50;;;4.00;99.90;;;;;;5119511;27;20031;-76
2021/01/01 12:34:46;;;;;;;31.05;20.27;;;3.90;99.90;;;;;;5128309;27;20034;-77
2021/01/01 12:37:11;;;;;;;35.15;21.27;;;3.80;99.90;;;;;;5110374;27;20034;-77
2021/01/01 12:39:37;;;;;;;36.42;22.58;;;3.90;99.90;;;;;;5124851;27;20098;-77
2021/01/01 12:42:03;;;;;;;32.78;20.88;;;3.90;99.90;;;;;;5124101;27;20060;-78
2021/01/01 12:44:30;;;;;;;30.50;19.67;;;3.90;99.90;;;;;;5123769;27;20026;-77
2021/01/01 12:46:57;;;;;;;29.98;20.02;;;3.90;99.90;;;;;;5105689;28;20028;-79
2021/01/01 12:49:22;;;;;;;34.30;20.70;;;3.90;99.90;;;;;;5124110;27;20031;-77
2021/01/01 12:51:48;;;;;;;36.33;21.45;;;3.90;99.90;;;;;;5127349;27;20015;-77
2021/01/01 12:54:14;;;;;;;30.75;19.45;;;3.90;99.90;;;;;;5123402;27;20031;-77
2021/01/01 12:56:39;;;;;;;29.23;17.80;;;3.80;99.90;;;;;;5123393;27;20016;-76
2021/01/01 12:59:08;;;;;;;31.95;19.75;;;3.80;99.90;;;;;;5109143;28;20019;-77
2021/01/01 13:01:34;;;;;;;26.17;18.38;;;3.90;99.90;;;;;;5126243;27;20023;-78
2021/01/01 13:04:00;;;;;;;31.80;21.10;;;3.90;99.90;;;;;;5105233;27;20435;-78
2021/01/01 13:06:28;;;;;;;29.75;18.95;;;4.00;99.90;;;;;;5124819;27;20050;-77
2021/01/01 13:08:57;;;;;;;28.98;19.05;;;4.00;99.90;;;;;;5122253;27;20031;-77
2021/01/01 13:11:29;;;;;;;31.75;20.65;;;4.00;99.90;;;;;;5124298;27;20492;-79
2021/01/01 13:13:54;;;;;;;31.80;22.05;;;3.90;99.90;;;;;;5124916;27;20379;-77
2021/01/01 13:16:21;;;;;;;31.42;19.58;;;3.90;99.90;;;;;;5125673;27;20046;-78
2021/01/01 13:18:48;;;;;;;25.67;17.65;;;4.00;99.90;;;;;;5127532;27;20027;-77
2021/01/01 13:21:22;;;;;;;31.33;19.65;;;4.00;99.90;;;;;;5105965;28;20392;-77
2021/01/01 13:23:47;;;;;;;29.58;19.55;;;4.00;99.90;;;;;;5116873;27;20398;-77
2021/01/01 13:26:18;;;;;;;29.38;19.05;;;4.10;99.90;;;;;;5110163;27;20019;-78
2021/01/01 13:28:43;;;;;;;28.38;18.67;;;4.00;99.90;;;;;;5122845;27;20049;-77
2021/01/01 13:31:09;;;;;;;26.75;18.33;;;4.00;99.90;;;;;;5105865;27;20024;-78
2021/01/01 13:33:35;;;;;;;42.60;24.70;;;4.00;99.90;;;;;;5125925;27;20038;-77
2021/01/01 13:36:01;;;;;;;27.50;17.58;;;4.00;99.90;;;;;;5125171;27;20065;-77
2021/01/01 13:38:26;;;;;;;38.05;24.15;;;4.00;99.90;;;;;;5123373;27;20027;-77
2021/01/01 13:40:51;;;;;;;26.02;15.85;;;4.00;99.90;;;;;;5125554;27;20471;-76
2021/01/01 13:43:17;;;;;;;26.58;18.10;;;4.00;99.90;;;;;;5124979;27;20024;-77
2021/01/01 13:45:42;;;;;;;27.08;18.27;;;4.00;99.90;;;;;;5128551;27;20509;-77
2021/01/01 13:48:08;;;;;;;31.08;18.40;;;4.10;99.90;;;;;;5128799;27;20023;-78
2021/01/01 13:50:33;;;;;;;24.88;16.42;;;4.10;99.90;;;;;;5127269;27;20026;-78